Time;durP1;ratioP1;P1;durP2;ratioP2;P2;SDS_P1;SDS_P2;PMS_P1;PMS_P2;Temp;Humidity;BMP_temperature;BMP_pressure;BME280_temperature;BME280_humidity;BME280_pressure;Samples;Min_cycle;Max_cycle;Signal;HPM_P1;HPM_P2
2022/12/28 00:01:30;;;;;;;18.20;7.23;;;7.60;99.90;;;;;;4926698;28;38636;-79
2022/12/28 00:03:59;;;;;;;13.27;7.00;;;7.60;99.90;;;;;;4927354;28;38778;-79
2022/12/28 00:06:26;;;;;;;21.30;7.60;;;7.70;99.90;;;;;;4924465;28;38620;-80
2022/12/28 00:08:53;;;;;;;13.47;7.10;;;7.70;99.90;;;;;;4927928;28;39220;-80
2022/12/28 00:11:21;;;;;;;17.00;7.77;;;7.70;99.90;;;;;;4944354;28;39596;-79
2022/12/28 00:13:47;;;;;;;16.50;7.67;;;7.70;99.90;;;;;;4928801;28;38214;-80
2022/12/28 00:16:40;;;;;;;13.07;7.60;;;7.70;99.90;;;;;;4934895;28;38715;-79
2022/12/28 00:19:12;;;;;;;15.80;7.93;;;7.80;99.90;;;;;;4925717;28;37891;-79
2022/12/28 00:21:38;;;;;;;15.83;7.50;;;7.80;99.90;;;;;;4929212;28;37354;-79
2022/12/28 00:24:04;;;;;;;16.67;8.37;;;7.80;99.90;;;;;;4928616;28;37181;-79
2022/12/28 00:26:32;;;;;;;14.30;8.57;;;7.90;99.90;;;;;;4926606;28;38641;-79
2022/12/28 00:28:59;;;;;;;15.33;8.00;;;7.90;99.90;;;;;;4926048;28;38889;-79
2022/12/28 00:31:26;;;;;;;16.27;8.83;;;7.90;99.90;;;;;;4934735;28;38701;-79
2022/12/28 00:33:52;;;;;;;19.57;9.00;;;8.00;99.90;;;;;;4947991;28;38583;-78
2022/12/28 00:36:18;;;;;;;19.53;7.83;;;8.00;99.90;;;;;;4928274;28;35809;-79
2022/12/28 00:38:44;;;;;;;13.73;8.57;;;8.10;99.90;;;;;;4928163;28;37904;-79
2022/12/28 00:41:11;;;;;;;15.20;7.97;;;8.10;99.90;;;;;;4938526;28;39308;-80
2022/12/28 00:43:37;;;;;;;16.70;8.80;;;8.10;99.90;;;;;;4932661;28;37696;-80
2022/12/28 00:46:03;;;;;;;17.00;8.17;;;8.20;99.90;;;;;;4944903;28;37417;-79
2022/12/28 00:48:30;;;;;;;16.63;8.23;;;8.20;99.90;;;;;;4927309;28;38317;-79
2022/12/28 00:51:04;;;;;;;22.90;9.10;;;8.20;99.90;;;;;;4928240;28;37288;-80
2022/12/28 00:53:31;;;;;;;14.73;8.83;;;8.20;99.90;;;;;;4941814;28;48586;-80
2022/12/28 00:56:14;;;;;;;16.43;8.33;;;8.20;99.90;;;;;;4948120;28;37030;-79
2022/12/28 00:58:41;;;;;;;12.97;7.63;;;8.20;99.90;;;;;;4930315;28;47199;-80
2022/12/28 01:01:14;;;;;;;12.97;8.20;;;8.20;99.90;;;;;;4941365;28;38448;-79
2022/12/28 01:03:41;;;;;;;17.33;9.27;;;8.30;99.90;;;;;;4925573;28;36772;-79
2022/12/28 01:06:09;;;;;;;17.83;8.87;;;8.30;99.90;;;;;;4944141;28;38124;-79
2022/12/28 01:08:36;;;;;;;14.27;8.50;;;8.30;99.90;;;;;;4923306;28;39742;-78
2022/12/28 01:11:25;;;;;;;11.73;7.70;;;8.30;99.90;;;;;;4944582;28;39027;-80
2022/12/28 01:13:53;;;;;;;19.67;8.90;;;8.30;99.90;;;;;;4941458;28;48388;-79
2022/12/28 01:16:25;;;;;;;16.03;8.50;;;8.30;99.90;;;;;;4946942;28;37073;-79
2022/12/28 01:18:53;;;;;;;15.70;9.63;;;8.30;99.90;;;;;;4925804;28;40671;-78
2022/12/28 01:21:25;;;;;;;17.43;9.30;;;8.30;99.90;;;;;;4944359;28;39686;-80
2022/12/28 01:23:56;;;;;;;16.47;8.67;;;8.40;99.90;;;;;;4930751;28;38290;-80
2022/12/28 01:26:23;;;;;;;19.57;8.77;;;8.40;99.90;;;;;;4926480;28;37440;-79
2022/12/28 01:28:49;;;;;;;15.03;8.60;;;8.40;99.90;;;;;;4941422;28;38449;-80
2022/12/28 01:31:17;;;;;;;21.63;8.97;;;8.40;99.90;;;;;;4930678;28;37119;-78
2022/12/28 01:33:43;;;;;;;18.13;8.90;;;8.50;99.90;;;;;;4951776;28;38840;-79
2022/12/28 01:36:21;;;;;;;15.40;8.63;;;8.50;99.90;;;;;;4931151;28;36106;-79
2022/12/28 01:38:55;;;;;;;15.43;8.47;;;8.50;99.90;;;;;;4939244;28;38887;-80
2022/12/28 01:41:22;;;;;;;18.63;9.60;;;8.50;99.90;;;;;;4941863;28;36596;-80
2022/12/28 01:43:51;;;;;;;13.80;8.33;;;8.60;99.90;;;;;;4930729;28;39445;-80
2022/12/28 01:46:23;;;;;;;12.77;7.97;;;8.60;99.90;;;;;;4931486;28;37908;-79
2022/12/28 01:49:04;;;;;;;13.02;8.23;;;8.60;99.90;;;;;;4935029;28;39592;-78
2022/12/28 01:51:38;;;;;;;20.50;8.50;;;8.60;99.90;;;;;;4942189;28;47865;-78
2022/12/28 01:54:04;;;;;;;14.40;8.27;;;8.60;99.90;;;;;;4926319;28;37146;-80
2022/12/28 01:56:30;;;;;;;15.67;8.00;;;8.70;99.90;;;;;;4941186;28;35460;-79
2022/12/28 01:58:57;;;;;;;14.83;8.53;;;8.60;99.90;;;;;;4942677;28;40635;-79
2022/12/28 02:03:59;;;;;;;18.70;8.37;;;8.70;99.90;;;;;;4382719;23;20051;-78
2022/12/28 02:06:26;;;;;;;13.27;8.07;;;8.70;99.90;;;;;;4942186;28;38106;-77
2022/12/28 02:09:05;;;;;;;14.83;7.37;;;8.80;99.90;;;;;;4945116;28;40013;-77
2022/12/28 02:11:33;;;;;;;13.70;7.93;;;8.80;99.90;;;;;;4947943;28;49321;-77
2022/12/28 02:14:00;;;;;;;12.63;7.40;;;8.80;99.90;;;;;;4931904;28;39571;-77
2022/12/28 02:16:26;;;;;;;16.53;8.00;;;8.80;99.90;;;;;;4932036;28;38941;-78
2022/12/28 02:18:53;;;;;;;17.87;8.53;;;8.70;99.90;;;;;;4952314;28;40348;-78
2022/12/28 02:21:47;;;;;;;14.43;8.60;;;8.70;99.90;;;;;;4940984;28;40237;-77
2022/12/28 02:24:45;;;;;;;17.97;8.57;;;8.70;99.90;;;;;;4950760;28;39768;-77
2022/12/28 02:27:50;;;;;;;14.53;7.10;;;8.70;99.90;;;;;;4918276;28;38151;-76
2022/12/28 02:30:17;;;;;;;14.63;8.27;;;8.80;99.90;;;;;;4918753;28;40666;-77
2022/12/28 02:32:58;;;;;;;13.00;8.07;;;8.80;99.90;;;;;;4945125;28;38144;-79
2022/12/28 02:36:07;;;;;;;16.87;8.07;;;8.80;99.90;;;;;;4929363;28;38366;-77
2022/12/28 02:38:37;;;;;;;14.57;7.90;;;8.90;99.90;;;;;;4890515;28;46437;-77
2022/12/28 02:41:16;;;;;;;17.63;8.40;;;8.90;99.90;;;;;;4933706;28;39362;-77
2022/12/28 02:43:43;;;;;;;11.77;7.00;;;8.90;99.90;;;;;;4927948;28;47029;-77
2022/12/28 02:51:52;;;;;;;9.97;6.30;;;9.10;99.90;;;;;;4947115;28;49379;-77
2022/12/28 02:57:59;;;;;;;9.47;6.17;;;9.10;99.90;;;;;;4952143;28;39770;-77
2022/12/28 03:00:33;;;;;;;12.17;6.80;;;9.10;99.90;;;;;;4928929;28;38660;-77
2022/12/28 03:03:33;;;;;;;10.10;6.83;;;9.10;99.90;;;;;;4927201;28;40594;-77
2022/12/28 03:09:54;;;;;;;14.95;6.70;;;9.10;99.90;;;;;;4948309;28;48046;-77
2022/12/28 03:12:28;;;;;;;8.83;6.00;;;9.10;99.90;;;;;;4903783;28;37153;-77
2022/12/28 03:15:10;;;;;;;12.17;6.20;;;9.10;99.90;;;;;;4928501;28;39552;-78
2022/12/28 03:31:42;;;;;;;10.93;5.83;;;9.20;99.90;;;;;;4941648;28;49385;-77
2022/12/28 03:34:10;;;;;;;10.63;5.10;;;9.20;99.90;;;;;;4924944;28;36052;-77
2022/12/28 03:36:42;;;;;;;8.83;5.00;;;9.20;99.90;;;;;;4943381;28;37887;-77
2022/12/28 03:39:41;;;;;;;11.20;5.28;;;9.20;99.90;;;;;;4945911;28;38791;-77
2022/12/28 03:45:18;;;;;;;8.87;4.90;;;9.30;99.90;;;;;;4947320;28;40124;-76
2022/12/28 03:47:47;;;;;;;8.60;4.60;;;9.30;99.90;;;;;;4928856;28;36642;-79
2022/12/28 03:50:14;;;;;;;14.57;4.70;;;9.30;99.90;;;;;;4929324;28;37584;-77
2022/12/28 03:52:40;;;;;;;10.40;4.97;;;9.40;99.90;;;;;;4927810;28;37040;-77
2022/12/28 03:55:07;;;;;;;7.03;4.10;;;9.40;99.90;;;;;;4926595;28;36213;-77
2022/12/28 03:57:33;;;;;;;12.20;4.53;;;9.40;99.90;;;;;;4945436;28;38603;-77
2022/12/28 03:59:59;;;;;;;7.27;3.80;;;9.50;99.90;;;;;;4938680;28;37326;-77
2022/12/28 04:02:25;;;;;;;6.07;3.93;;;9.50;99.90;;;;;;4923229;28;37099;-77
2022/12/28 04:04:52;;;;;;;6.83;4.47;;;9.50;99.90;;;;;;4938658;28;36231;-78
2022/12/28 04:07:18;;;;;;;8.93;4.07;;;9.60;99.90;;;;;;4945258;28;39615;-77
2022/12/28 04:09:44;;;;;;;6.37;3.40;;;9.60;99.90;;;;;;4923868;28;37595;-77
2022/12/28 04:12:11;;;;;;;8.33;4.50;;;9.60;99.90;;;;;;4947306;28;38399;-76
2022/12/28 04:14:37;;;;;;;10.27;3.83;;;9.60;99.90;;;;;;4934029;28;36093;-76
2022/12/28 04:17:03;;;;;;;6.87;4.03;;;9.60;99.90;;;;;;4928142;28;37900;-77
2022/12/28 04:19:29;;;;;;;6.57;3.70;;;9.60;99.90;;;;;;4942500;28;37582;-77
2022/12/28 04:21:55;;;;;;;8.53;4.20;;;9.60;99.90;;;;;;4935083;28;36896;-77
2022/12/28 04:24:21;;;;;;;10.97;4.13;;;9.70;99.90;;;;;;4932912;28;35820;-78
2022/12/28 04:26:47;;;;;;;5.47;3.23;;;9.70;99.90;;;;;;4929330;28;40967;-76
2022/12/28 04:29:13;;;;;;;7.80;3.70;;;9.70;99.90;;;;;;4947811;28;38726;-76
2022/12/28 04:31:39;;;;;;;8.40;4.10;;;9.60;99.90;;;;;;4928021;28;38838;-76
2022/12/28 04:34:06;;;;;;;5.67;3.20;;;9.70;99.90;;;;;;4942586;28;39336;-80
2022/12/28 04:36:32;;;;;;;9.53;4.07;;;9.70;99.90;;;;;;4933859;28;39479;-77
2022/12/28 04:38:59;;;;;;;8.43;3.20;;;9.70;99.90;;;;;;4936105;28;39149;-77
2022/12/28 04:41:26;;;;;;;6.67;3.27;;;9.80;99.90;;;;;;4948202;28;37863;-77
2022/12/28 04:43:55;;;;;;;7.07;3.30;;;9.80;99.90;;;;;;4933466;28;37893;-76
2022/12/28 04:46:22;;;;;;;5.90;3.40;;;9.70;99.90;;;;;;4941664;28;37763;-76
2022/12/28 04:48:48;;;;;;;7.17;3.20;;;9.80;99.90;;;;;;4936081;28;38981;-76
2022/12/28 04:51:18;;;;;;;11.97;3.60;;;9.70;99.90;;;;;;4950790;28;38021;-76
2022/12/28 04:53:44;;;;;;;6.40;3.50;;;9.80;99.90;;;;;;4928654;28;38073;-76
2022/12/28 04:56:12;;;;;;;6.93;3.70;;;9.70;99.90;;;;;;4925881;28;39281;-79
2022/12/28 04:58:38;;;;;;;10.77;4.70;;;9.70;99.90;;;;;;4946340;28;37489;-77
2022/12/28 05:01:10;;;;;;;7.07;4.40;;;9.70;99.90;;;;;;4929853;28;38635;-77
2022/12/28 05:03:37;;;;;;;8.63;4.37;;;9.60;99.90;;;;;;4943193;28;37750;-75
2022/12/28 05:06:06;;;;;;;7.73;4.27;;;9.60;99.90;;;;;;4926493;28;39422;-76
2022/12/28 05:08:34;;;;;;;13.30;4.77;;;9.60;99.90;;;;;;4922238;28;47083;-77
2022/12/28 05:11:02;;;;;;;7.33;4.17;;;9.60;99.90;;;;;;4928623;28;38897;-76
2022/12/28 05:13:29;;;;;;;8.37;3.80;;;9.60;99.90;;;;;;4930249;28;37406;-77
2022/12/28 05:16:06;;;;;;;6.77;3.50;;;9.60;99.90;;;;;;4945118;28;39403;-77
2022/12/28 05:18:34;;;;;;;7.53;3.93;;;9.60;99.90;;;;;;4923318;28;47254;-78
2022/12/28 05:21:26;;;;;;;6.77;4.03;;;9.70;99.90;;;;;;4927305;28;39615;-76
2022/12/28 05:23:53;;;;;;;10.07;4.55;;;9.70;99.90;;;;;;4934788;28;48462;-77
2022/12/28 05:26:22;;;;;;;9.40;4.30;;;9.70;99.90;;;;;;4937530;28;38930;-77
2022/12/28 05:28:49;;;;;;;6.20;3.97;;;9.70;99.90;;;;;;4926439;28;39599;-76
2022/12/28 05:31:18;;;;;;;8.03;4.63;;;9.70;99.90;;;;;;4942869;28;37972;-76
2022/12/28 05:33:44;;;;;;;9.23;4.80;;;9.80;99.90;;;;;;4944885;28;36197;-77
2022/12/28 05:36:20;;;;;;;7.97;4.43;;;9.80;99.90;;;;;;4946800;28;38821;-77
2022/12/28 05:38:46;;;;;;;3.97;3.40;;;9.80;99.90;;;;;;4951647;28;38691;-77
2022/12/28 05:41:22;;;;;;;11.50;4.17;;;9.80;99.90;;;;;;4929194;28;38891;-76
2022/12/28 05:43:49;;;;;;;7.77;4.03;;;9.90;99.90;;;;;;4928331;28;37833;-76
2022/12/28 05:46:18;;;;;;;7.50;3.97;;;9.90;99.90;;;;;;4944219;28;38943;-76
2022/12/28 05:48:45;;;;;;;11.23;4.30;;;9.90;99.90;;;;;;4923483;28;40033;-76
2022/12/28 05:51:14;;;;;;;6.77;3.50;;;9.90;99.90;;;;;;4931976;28;38818;-76
2022/12/28 05:53:41;;;;;;;10.97;3.93;;;9.90;99.90;;;;;;4951095;28;36843;-78
2022/12/28 05:56:21;;;;;;;11.10;4.43;;;9.90;99.90;;;;;;4948696;28;37959;-76
2022/12/28 05:59:12;;;;;;;11.07;4.20;;;9.90;99.90;;;;;;4936487;28;39019;-76
2022/12/28 06:01:42;;;;;;;6.97;3.63;;;9.90;99.90;;;;;;4948661;28;45764;-76
2022/12/28 06:04:16;;;;;;;6.10;3.67;;;9.90;99.90;;;;;;4936398;28;37725;-76
2022/12/28 06:06:44;;;;;;;8.80;3.73;;;9.90;99.90;;;;;;4933837;28;40646;-78
2022/12/28 06:09:11;;;;;;;10.33;3.87;;;10.00;99.90;;;;;;4934761;28;39973;-78
2022/12/28 06:11:37;;;;;;;5.13;3.80;;;10.00;99.90;;;;;;4937802;28;38746;-78
2022/12/28 06:14:04;;;;;;;8.47;3.63;;;10.00;99.90;;;;;;4954938;28;37333;-78
2022/12/28 06:16:33;;;;;;;8.47;3.73;;;10.00;99.90;;;;;;4940013;28;39721;-80
2022/12/28 06:19:04;;;;;;;9.07;3.87;;;10.00;99.90;;;;;;4939360;28;39798;-79
2022/12/28 06:21:32;;;;;;;6.57;4.30;;;10.00;99.90;;;;;;4954252;28;47075;-78
2022/12/28 06:23:59;;;;;;;8.50;4.03;;;10.00;99.90;;;;;;4939778;28;37764;-78
2022/12/28 06:26:28;;;;;;;6.17;3.50;;;10.00;99.90;;;;;;4938302;28;39287;-78
2022/12/28 06:28:54;;;;;;;5.27;3.20;;;10.00;99.90;;;;;;4942887;28;38744;-78
2022/12/28 06:31:26;;;;;;;8.63;3.43;;;10.10;99.90;;;;;;4940639;28;37762;-78
2022/12/28 06:33:55;;;;;;;8.13;3.50;;;10.00;99.90;;;;;;4937925;28;35792;-78
2022/12/28 06:36:28;;;;;;;7.60;3.67;;;10.10;99.90;;;;;;4936738;28;37521;-80
2022/12/28 06:38:56;;;;;;;6.38;3.50;;;10.10;99.90;;;;;;4953747;28;38409;-78
2022/12/28 06:41:23;;;;;;;4.87;3.30;;;10.10;99.90;;;;;;4950076;28;38480;-79
2022/12/28 06:43:50;;;;;;;5.40;3.17;;;10.10;99.90;;;;;;4929375;28;36978;-79
2022/12/28 06:46:18;;;;;;;6.30;3.40;;;10.10;99.90;;;;;;4937458;28;40619;-79
2022/12/28 06:48:44;;;;;;;5.37;3.37;;;10.10;99.90;;;;;;4937503;28;39103;-78
2022/12/28 06:51:17;;;;;;;4.73;3.00;;;10.10;99.90;;;;;;4937299;28;39291;-79
2022/12/28 06:53:45;;;;;;;7.77;3.77;;;10.10;99.90;;;;;;4940982;28;36297;-78
2022/12/28 06:56:15;;;;;;;4.50;2.83;;;10.10;99.90;;;;;;4939426;28;37252;-78
2022/12/28 06:58:41;;;;;;;5.63;3.03;;;10.20;99.90;;;;;;4958733;28;38806;-78
2022/12/28 07:01:19;;;;;;;9.40;3.53;;;10.10;99.90;;;;;;4950680;28;38013;-79
2022/12/28 07:03:47;;;;;;;4.97;3.23;;;10.10;99.90;;;;;;4957719;28;35056;-78
2022/12/28 07:06:15;;;;;;;7.73;3.67;;;10.10;99.90;;;;;;4956767;28;38525;-78
2022/12/28 07:08:42;;;;;;;6.33;3.43;;;10.10;99.90;;;;;;4941404;28;38657;-78
2022/12/28 07:11:11;;;;;;;6.57;3.20;;;10.10;99.90;;;;;;4952892;28;38515;-78
2022/12/28 07:13:38;;;;;;;7.27;3.70;;;10.20;99.90;;;;;;4952781;28;37471;-79
2022/12/28 07:16:06;;;;;;;6.93;3.60;;;10.20;99.90;;;;;;4954184;28;39578;-78
2022/12/28 07:18:33;;;;;;;6.00;3.27;;;10.20;99.90;;;;;;4952828;28;47592;-78
2022/12/28 07:21:05;;;;;;;8.33;3.83;;;10.10;99.90;;;;;;4950624;28;36532;-79
2022/12/28 07:23:32;;;;;;;6.00;3.85;;;10.10;99.90;;;;;;4951655;28;47137;-78
2022/12/28 07:26:09;;;;;;;8.60;3.20;;;10.10;99.90;;;;;;4934712;28;37751;-78
2022/12/28 07:28:39;;;;;;;5.63;2.93;;;10.20;99.90;;;;;;4957708;28;47425;-78
2022/12/28 07:31:15;;;;;;;4.97;3.20;;;10.20;99.90;;;;;;4931595;28;36757;-79
2022/12/28 07:33:42;;;;;;;6.60;3.13;;;10.20;99.90;;;;;;4935023;28;37869;-77
2022/12/28 07:36:14;;;;;;;5.50;3.23;;;10.20;99.90;;;;;;4943399;28;40438;-78
2022/12/28 07:38:40;;;;;;;4.23;2.57;;;10.20;99.90;;;;;;4934913;28;39550;-78
2022/12/28 07:41:10;;;;;;;6.43;2.80;;;10.20;99.90;;;;;;4930644;28;40613;-78
2022/12/28 07:43:36;;;;;;;6.77;2.77;;;10.20;99.90;;;;;;4943634;28;37422;-78
2022/12/28 07:46:17;;;;;;;3.70;2.80;;;10.20;99.90;;;;;;4935704;28;39257;-78
2022/12/28 07:48:44;;;;;;;4.23;2.73;;;10.30;99.90;;;;;;4946011;28;48832;-78
2022/12/28 07:51:21;;;;;;;2.53;2.33;;;10.20;99.90;;;;;;4951151;28;38940;-79
2022/12/28 07:53:49;;;;;;;3.77;2.40;;;10.30;99.90;;;;;;4929865;28;39240;-77
2022/12/28 07:56:16;;;;;;;4.17;2.40;;;10.30;99.90;;;;;;4955828;28;39191;-79
2022/12/28 07:58:50;;;;;;;5.97;2.57;;;10.30;99.90;;;;;;4948759;28;38243;-78
2022/12/28 08:01:18;;;;;;;3.77;2.40;;;10.30;99.90;;;;;;4953577;28;36768;-78
2022/12/28 08:03:45;;;;;;;6.50;3.10;;;10.30;99.90;;;;;;4932410;28;37609;-78
2022/12/28 08:06:21;;;;;;;8.43;3.07;;;10.30;99.90;;;;;;4951159;28;38996;-79
2022/12/28 08:08:51;;;;;;;3.97;3.10;;;10.30;99.90;;;;;;4958937;28;38580;-78
2022/12/28 08:11:20;;;;;;;7.03;3.13;;;10.30;99.90;;;;;;4936242;28;38736;-78
2022/12/28 08:13:48;;;;;;;6.80;2.90;;;10.30;99.90;;;;;;4933921;28;37626;-78
2022/12/28 08:16:19;;;;;;;8.87;3.37;;;10.30;99.90;;;;;;4936512;28;40295;-78
2022/12/28 08:18:46;;;;;;;5.67;2.80;;;10.30;99.90;;;;;;4937879;28;39660;-78
2022/12/28 08:21:17;;;;;;;5.93;3.27;;;10.20;99.90;;;;;;4933600;28;36706;-78
2022/12/28 08:23:45;;;;;;;5.47;3.47;;;10.20;99.90;;;;;;4928632;28;38180;-78
2022/12/28 08:26:17;;;;;;;7.13;3.20;;;10.20;99.90;;;;;;4934511;28;40441;-78
2022/12/28 08:28:44;;;;;;;5.82;2.92;;;10.20;99.90;;;;;;4936075;28;39623;-76
2022/12/28 08:31:22;;;;;;;9.03;3.20;;;10.20;99.90;;;;;;4954330;28;38886;-78
2022/12/28 08:33:48;;;;;;;5.40;2.70;;;10.20;99.90;;;;;;4926385;28;39310;-78
2022/12/28 08:36:15;;;;;;;11.83;2.93;;;10.20;99.90;;;;;;4949270;28;39649;-77
2022/12/28 08:38:43;;;;;;;7.67;2.80;;;10.20;99.90;;;;;;4936076;28;38956;-77
2022/12/28 08:41:18;;;;;;;5.10;2.70;;;10.20;99.90;;;;;;4947780;28;37676;-77
2022/12/28 08:43:45;;;;;;;8.07;3.20;;;10.30;99.90;;;;;;4946816;28;36679;-77
2022/12/28 08:46:17;;;;;;;5.53;2.27;;;10.30;99.90;;;;;;4931350;28;39947;-77
2022/12/28 08:48:44;;;;;;;6.93;2.23;;;10.30;99.90;;;;;;4948295;28;39575;-77
2022/12/28 08:51:32;;;;;;;6.40;2.73;;;10.30;99.90;;;;;;4946584;28;38791;-77
2022/12/28 08:54:00;;;;;;;7.37;3.23;;;10.30;99.90;;;;;;4932761;28;37534;-77
2022/12/28 08:56:29;;;;;;;9.33;2.60;;;10.30;99.90;;;;;;4931395;28;39571;-77
2022/12/28 08:58:56;;;;;;;9.37;2.90;;;10.30;99.90;;;;;;4949631;28;38480;-77
2022/12/28 09:01:25;;;;;;;7.43;2.43;;;10.30;99.90;;;;;;4933862;28;39923;-77
2022/12/28 09:03:53;;;;;;;6.87;2.10;;;10.30;99.90;;;;;;4932782;28;38044;-78
2022/12/28 09:06:22;;;;;;;11.93;2.47;;;10.30;99.90;;;;;;4946503;28;38921;-78
2022/12/28 09:08:53;;;;;;;8.70;3.93;;;10.30;99.90;;;;;;4937011;28;38899;-77
2022/12/28 09:11:20;;;;;;;6.37;2.20;;;10.30;99.90;;;;;;4954756;28;38713;-77
2022/12/28 09:13:47;;;;;;;9.50;2.97;;;10.40;99.90;;;;;;4934267;28;38813;-77
2022/12/28 09:16:16;;;;;;;8.03;2.43;;;10.40;99.90;;;;;;4957121;28;38856;-77
2022/12/28 09:18:44;;;;;;;9.57;2.87;;;10.30;99.90;;;;;;4951506;28;39371;-77
2022/12/28 09:21:13;;;;;;;7.77;2.20;;;10.30;99.90;;;;;;4941097;28;38655;-77
2022/12/28 09:23:40;;;;;;;11.77;2.73;;;10.30;99.90;;;;;;4936587;28;36006;-77
2022/12/28 09:26:12;;;;;;;9.10;2.00;;;10.30;99.90;;;;;;4928833;28;40154;-77
2022/12/28 09:28:38;;;;;;;9.37;2.77;;;10.30;99.90;;;;;;4931742;28;38875;-77
2022/12/28 09:31:07;;;;;;;12.37;2.93;;;10.40;99.90;;;;;;4932614;28;39894;-79
2022/12/28 09:36:20;;;;;;;8.83;2.97;;;10.40;99.90;;;;;;4961183;28;39755;-77
2022/12/28 09:38:47;;;;;;;11.97;3.60;;;10.40;99.90;;;;;;4939231;28;37075;-78
2022/12/28 09:41:38;;;;;;;12.60;3.43;;;10.40;99.90;;;;;;4932264;28;39337;-77
2022/12/28 09:44:32;;;;;;;15.23;4.03;;;10.40;99.90;;;;;;4953698;28;36680;-78
2022/12/28 09:47:07;;;;;;;9.57;3.30;;;10.40;99.90;;;;;;4932875;28;39232;-77
2022/12/28 09:49:57;;;;;;;10.60;2.77;;;10.40;99.90;;;;;;4951849;28;48721;-78
2022/12/28 09:52:31;;;;;;;7.53;2.80;;;10.40;99.90;;;;;;4944309;28;36864;-78
2022/12/28 09:55:18;;;;;;;10.97;3.30;;;10.40;99.90;;;;;;4941600;28;38638;-78
2022/12/28 09:57:49;;;;;;;9.97;2.83;;;10.50;99.90;;;;;;4946675;28;46374;-78
2022/12/28 10:00:30;;;;;;;10.40;3.20;;;10.50;99.90;;;;;;4951295;28;39030;-79
2022/12/28 10:03:04;;;;;;;12.10;3.37;;;10.50;99.90;;;;;;4930535;28;39795;-78
2022/12/28 10:05:30;;;;;;;10.23;2.87;;;10.50;99.90;;;;;;4953207;28;49117;-78
2022/12/28 10:07:58;;;;;;;10.43;3.30;;;10.50;99.90;;;;;;4951825;28;38808;-77
2022/12/28 10:10:25;;;;;;;8.10;3.23;;;10.40;99.90;;;;;;4936304;28;36661;-77
2022/12/28 10:12:52;;;;;;;9.53;2.83;;;10.40;99.90;;;;;;4953478;28;36587;-78
2022/12/28 10:15:20;;;;;;;10.43;2.90;;;10.30;99.90;;;;;;4934274;28;35309;-79
2022/12/28 10:17:46;;;;;;;10.13;3.80;;;10.20;99.90;;;;;;4949635;28;38458;-78
2022/12/28 10:20:17;;;;;;;21.63;4.00;;;10.20;99.90;;;;;;4934121;28;39926;-78
2022/12/28 10:22:49;;;;;;;11.40;3.33;;;10.20;99.90;;;;;;4933853;28;38779;-77
2022/12/28 10:25:19;;;;;;;11.98;4.65;;;10.20;99.90;;;;;;4935457;28;38318;-76
2022/12/28 10:27:45;;;;;;;9.73;3.80;;;10.20;99.90;;;;;;4957931;28;39061;-78
2022/12/28 10:30:25;;;;;;;16.77;4.63;;;10.20;99.90;;;;;;4960089;28;38543;-78
2022/12/28 10:32:57;;;;;;;11.67;4.17;;;10.20;99.90;;;;;;4925952;28;38528;-78
2022/12/28 10:35:32;;;;;;;13.67;3.90;;;10.20;99.90;;;;;;4948727;28;38130;-78
2022/12/28 10:38:05;;;;;;;10.60;3.57;;;10.10;99.90;;;;;;4935816;28;39004;-79
2022/12/28 10:40:38;;;;;;;15.70;4.10;;;10.10;99.90;;;;;;4936169;28;48233;-79
2022/12/28 10:43:05;;;;;;;;;;;10.10;99.90;;;;;;4955585;28;38352;-80
2022/12/28 10:45:38;;;;;;;7.47;3.57;;;10.10;99.90;;;;;;4942846;28;37025;-77
2022/12/28 10:48:13;;;;;;;14.23;4.87;;;10.10;99.90;;;;;;4966721;28;39383;-80
2022/12/28 10:50:45;;;;;;;11.67;4.30;;;10.10;99.90;;;;;;4963119;28;37946;-79
2022/12/28 10:53:31;;;;;;;13.80;3.88;;;10.10;99.90;;;;;;4963564;28;35811;-79
2022/12/28 10:56:06;;;;;;;9.07;4.00;;;10.10;99.90;;;;;;4947387;28;36280;-82
2022/12/28 10:58:33;;;;;;;10.17;3.70;;;10.10;99.90;;;;;;4949100;28;48091;-81
2022/12/28 11:01:15;;;;;;;7.77;3.17;;;10.10;99.90;;;;;;4943934;28;39193;-81
2022/12/28 11:04:06;;;;;;;10.47;3.83;;;10.10;99.90;;;;;;4962011;28;48594;-81
2022/12/28 11:06:49;;;;;;;13.53;4.37;;;10.10;99.90;;;;;;4940773;28;47315;-80
2022/12/28 11:09:25;;;;;;;8.50;3.47;;;10.00;99.90;;;;;;4941047;28;39659;-80
2022/12/28 11:11:54;;;;;;;12.77;3.77;;;10.10;99.90;;;;;;4943913;28;38793;-78
2022/12/28 11:14:31;;;;;;;10.43;3.70;;;10.00;99.90;;;;;;4940449;28;38862;-78
2022/12/28 11:17:20;;;;;;;15.87;3.90;;;10.00;99.90;;;;;;4954194;28;38404;-77
2022/12/28 11:19:49;;;;;;;5.67;2.93;;;10.00;99.90;;;;;;4940466;28;47193;-78
2022/12/28 11:22:22;;;;;;;12.77;3.37;;;10.00;99.90;;;;;;4956241;28;38401;-78
2022/12/28 11:24:48;;;;;;;12.97;3.27;;;10.00;99.90;;;;;;4957545;28;38649;-78
2022/12/28 11:27:17;;;;;;;12.00;3.37;;;10.10;99.90;;;;;;4942636;28;38205;-78
2022/12/28 11:29:47;;;;;;;10.43;3.50;;;10.00;99.90;;;;;;4934935;28;39801;-81
2022/12/28 11:32:21;;;;;;;10.63;3.27;;;10.00;99.90;;;;;;4943652;28;38879;-78
2022/12/28 11:34:49;;;;;;;9.77;3.10;;;9.90;99.90;;;;;;4943386;28;36612;-78
2022/12/28 11:37:15;;;;;;;11.97;3.57;;;9.90;99.90;;;;;;4940671;28;38044;-80
2022/12/28 11:39:47;;;;;;;12.27;3.50;;;10.00;99.90;;;;;;4934016;28;40748;-78
2022/12/28 11:42:31;;;;;;;10.73;2.90;;;10.00;99.90;;;;;;4939717;28;37286;-81
2022/12/28 11:44:59;;;;;;;12.43;3.50;;;9.90;99.90;;;;;;4938351;28;37955;-77
2022/12/28 11:47:32;;;;;;;8.53;2.90;;;10.00;99.90;;;;;;4934203;28;36469;-78
2022/12/28 11:50:33;;;;;;;9.77;3.23;;;10.00;99.90;;;;;;4936351;28;38860;-78
2022/12/28 11:53:01;;;;;;;7.23;3.07;;;10.00;99.90;;;;;;4929995;28;47131;-77
2022/12/28 11:55:41;;;;;;;14.03;3.70;;;10.00;99.90;;;;;;4953447;28;37714;-78
2022/12/28 11:58:29;;;;;;;10.30;2.77;;;10.00;99.90;;;;;;4939234;28;36895;-77
2022/12/28 12:00:58;;;;;;;9.17;3.10;;;10.00;99.90;;;;;;4954787;28;39200;-81
2022/12/28 12:04:00;;;;;;;14.43;3.30;;;10.00;99.90;;;;;;4939476;28;37685;-80
2022/12/28 12:06:44;;;;;;;6.63;3.17;;;10.00;99.90;;;;;;4865773;29;36934;-78
2022/12/28 12:09:37;;;;;;;12.73;3.80;;;10.00;99.90;;;;;;4929486;28;37449;-79
2022/12/28 12:12:28;;;;;;;9.52;3.60;;;10.00;99.90;;;;;;4951876;28;38653;-79
2022/12/28 12:15:01;;;;;;;13.50;3.77;;;10.00;99.90;;;;;;4955684;28;38570;-78
2022/12/28 12:17:46;;;;;;;14.30;3.37;;;10.10;99.90;;;;;;4938744;28;37317;-80
2022/12/28 12:20:27;;;;;;;8.27;3.03;;;10.10;99.90;;;;;;4961164;28;38660;-78
2022/12/28 12:23:06;;;;;;;14.13;3.83;;;10.10;99.90;;;;;;4949798;28;40140;-78
2022/12/28 12:25:39;;;;;;;10.97;3.33;;;10.10;99.90;;;;;;4938569;28;46808;-78
2022/12/28 12:28:26;;;;;;;13.33;2.87;;;10.20;99.90;;;;;;4942641;28;38022;-81
2022/12/28 12:30:54;;;;;;;15.80;3.57;;;10.20;99.90;;;;;;4951868;28;37028;-78
2022/12/28 12:33:28;;;;;;;11.13;3.20;;;10.30;99.90;;;;;;4945773;28;38828;-77
2022/12/28 12:36:04;;;;;;;12.03;2.70;;;10.30;99.90;;;;;;4950415;28;38852;-77
2022/12/28 12:38:43;;;;;;;11.43;3.00;;;10.30;99.90;;;;;;4938104;28;47416;-78
2022/12/28 12:41:39;;;;;;;10.13;2.80;;;10.30;99.90;;;;;;4936683;28;20058;-78
2022/12/28 12:44:18;;;;;;;10.87;2.73;;;10.30;99.90;;;;;;4940353;28;37818;-81
2022/12/28 12:47:08;;;;;;;7.70;2.87;;;10.40;99.90;;;;;;4945646;28;39348;-79
2022/12/28 12:49:52;;;;;;;15.27;3.00;;;10.40;99.90;;;;;;4934215;28;47465;-81
2022/12/28 12:52:54;;;;;;;11.20;3.20;;;10.40;99.90;;;;;;4947980;28;36885;-80
2022/12/28 12:55:35;;;;;;;8.50;3.20;;;10.40;99.90;;;;;;4931121;28;40312;-79
2022/12/28 12:58:31;;;;;;;22.00;4.60;;;10.40;99.90;;;;;;4942823;28;39194;-79
2022/12/28 13:01:10;;;;;;;19.10;3.67;;;10.40;99.90;;;;;;4932247;28;48230;-80
2022/12/28 13:03:46;;;;;;;12.77;3.20;;;10.50;99.90;;;;;;4926487;28;46748;-79
2022/12/28 13:06:16;;;;;;;13.47;3.50;;;10.50;99.90;;;;;;4942075;28;38645;-80
2022/12/28 13:08:49;;;;;;;15.53;3.40;;;10.50;99.90;;;;;;4949882;28;38305;-79
2022/12/28 13:11:18;;;;;;;14.33;3.40;;;10.60;99.90;;;;;;4930875;28;38561;-79
2022/12/28 13:13:46;;;;;;;12.30;3.43;;;10.60;99.90;;;;;;4927347;28;35910;-80
2022/12/28 13:16:16;;;;;;;10.90;3.23;;;10.60;99.90;;;;;;4933990;28;39490;-80
2022/12/28 13:18:56;;;;;;;14.87;3.20;;;10.70;99.90;;;;;;4932226;28;39732;-80
2022/12/28 13:21:25;;;;;;;11.23;2.80;;;10.70;99.90;;;;;;4949185;28;38202;-79
2022/12/28 13:23:51;;;;;;;10.60;3.03;;;10.80;99.90;;;;;;4947648;28;38845;-80
2022/12/28 13:26:23;;;;;;;9.40;2.47;;;10.90;99.90;;;;;;4945528;28;38509;-80
2022/12/28 13:29:08;;;;;;;9.32;2.67;;;10.90;99.90;;;;;;4930934;28;37422;-80
2022/12/28 13:31:38;;;;;;;12.10;2.40;;;10.90;99.90;;;;;;4950536;28;47178;-78
2022/12/28 13:34:24;;;;;;;8.77;3.13;;;10.90;99.90;;;;;;4950847;28;37321;-80
2022/12/28 13:36:58;;;;;;;9.20;2.57;;;10.90;99.90;;;;;;4938016;28;39733;-80
2022/12/28 13:39:30;;;;;;;10.73;2.80;;;10.90;99.90;;;;;;4931723;28;37293;-80
2022/12/28 13:41:59;;;;;;;11.07;2.90;;;10.90;99.90;;;;;;4931960;28;38925;-79
2022/12/28 13:44:40;;;;;;;9.40;2.90;;;10.90;99.90;;;;;;4949707;28;37664;-79
2022/12/28 13:47:12;;;;;;;8.10;3.03;;;10.90;99.90;;;;;;4930018;28;40696;-80